sensor_id;sensor_type;location;lat;lon;timestamp;P1;durP1;ratioP1;P2;durP2;ratioP2
22863;SDS011;11599;49.882;8.680;2024-01-06T00:09:59;5.23;;;1.93;;
22863;SDS011;11599;49.882;8.680;2024-01-06T00:20:21;9.17;;;1.90;;
22863;SDS011;11599;49.882;8.680;2024-01-06T00:30:43;4.33;;;1.33;;
22863;SDS011;11599;49.882;8.680;2024-01-06T00:41:08;4.67;;;1.60;;
22863;SDS011;11599;49.882;8.680;2024-01-06T00:51:29;7.50;;;2.00;;
22863;SDS011;11599;49.882;8.680;2024-01-06T01:01:52;8.27;;;1.87;;
22863;SDS011;11599;49.882;8.680;2024-01-06T01:12:14;11.30;;;2.20;;
22863;SDS011;11599;49.882;8.680;2024-01-06T01:22:36;6.87;;;2.23;;
22863;SDS011;11599;49.882;8.680;2024-01-06T01:32:58;7.00;;;1.93;;
22863;SDS011;11599;49.882;8.680;2024-01-06T01:43:21;9.63;;;2.20;;
22863;SDS011;11599;49.882;8.680;2024-01-06T01:53:43;8.30;;;2.00;;
22863;SDS011;11599;49.882;8.680;2024-01-06T02:04:07;8.73;;;2.10;;
22863;SDS011;11599;49.882;8.680;2024-01-06T02:14:28;7.27;;;2.07;;
22863;SDS011;11599;49.882;8.680;2024-01-06T02:24:52;5.53;;;1.80;;
22863;SDS011;11599;49.882;8.680;2024-01-06T02:35:14;8.67;;;2.00;;
22863;SDS011;11599;49.882;8.680;2024-01-06T02:45:37;6.80;;;1.93;;
22863;SDS011;11599;49.882;8.680;2024-01-06T02:55:58;6.70;;;1.90;;
22863;SDS011;11599;49.882;8.680;2024-01-06T03:06:21;3.37;;;1.63;;
22863;SDS011;11599;49.882;8.680;2024-01-06T03:16:42;5.03;;;1.90;;
22863;SDS011;11599;49.882;8.680;2024-01-06T03:27:05;4.13;;;1.63;;
22863;SDS011;11599;49.882;8.680;2024-01-06T03:37:27;4.77;;;1.93;;
22863;SDS011;11599;49.882;8.680;2024-01-06T03:47:49;11.40;;;2.40;;
22863;SDS011;11599;49.882;8.680;2024-01-06T03:58:11;5.87;;;2.17;;
22863;SDS011;11599;49.882;8.680;2024-01-06T04:08:35;9.53;;;2.07;;
22863;SDS011;11599;49.882;8.680;2024-01-06T04:18:56;7.87;;;2.13;;
22863;SDS011;11599;49.882;8.680;2024-01-06T04:29:19;6.50;;;2.37;;
22863;SDS011;11599;49.882;8.680;2024-01-06T04:39:41;3.87;;;2.00;;
22863;SDS011;11599;49.882;8.680;2024-01-06T04:50:04;7.93;;;2.67;;
22863;SDS011;11599;49.882;8.680;2024-01-06T05:00:25;5.97;;;1.83;;
22863;SDS011;11599;49.882;8.680;2024-01-06T05:10:48;4.47;;;1.90;;
22863;SDS011;11599;49.882;8.680;2024-01-06T05:21:10;6.67;;;1.90;;
22863;SDS011;11599;49.882;8.680;2024-01-06T05:31:33;11.73;;;2.67;;
22863;SDS011;11599;49.882;8.680;2024-01-06T05:41:54;7.13;;;2.17;;
22863;SDS011;11599;49.882;8.680;2024-01-06T05:52:17;4.87;;;2.10;;
22863;SDS011;11599;49.882;8.680;2024-01-06T06:02:39;5.27;;;2.00;;
22863;SDS011;11599;49.882;8.680;2024-01-06T06:13:02;4.47;;;2.10;;
22863;SDS011;11599;49.882;8.680;2024-01-06T06:23:23;9.37;;;2.30;;
22863;SDS011;11599;49.882;8.680;2024-01-06T06:33:46;5.43;;;2.40;;
22863;SDS011;11599;49.882;8.680;2024-01-06T06:44:07;6.70;;;2.37;;
22863;SDS011;11599;49.882;8.680;2024-01-06T06:54:30;6.70;;;2.23;;
22863;SDS011;11599;49.882;8.680;2024-01-06T07:04:51;7.23;;;2.60;;
22863;SDS011;11599;49.882;8.680;2024-01-06T07:15:15;5.10;;;2.73;;
22863;SDS011;11599;49.882;8.680;2024-01-06T07:25:36;8.17;;;3.17;;
22863;SDS011;11599;49.882;8.680;2024-01-06T07:35:59;7.60;;;2.90;;
22863;SDS011;11599;49.882;8.680;2024-01-06T07:46:21;6.57;;;3.00;;
22863;SDS011;11599;49.882;8.680;2024-01-06T07:56:45;9.43;;;3.50;;
22863;SDS011;11599;49.882;8.680;2024-01-06T08:07:06;7.30;;;3.27;;
22863;SDS011;11599;49.882;8.680;2024-01-06T08:17:30;7.43;;;3.23;;
22863;SDS011;11599;49.882;8.680;2024-01-06T08:27:52;6.90;;;3.40;;
22863;SDS011;11599;49.882;8.680;2024-01-06T08:38:14;8.97;;;3.13;;
22863;SDS011;11599;49.882;8.680;2024-01-06T08:48:36;10.27;;;3.40;;
22863;SDS011;11599;49.882;8.680;2024-01-06T08:58:59;9.70;;;3.73;;
22863;SDS011;11599;49.882;8.680;2024-01-06T09:09:20;15.43;;;4.57;;
22863;SDS011;11599;49.882;8.680;2024-01-06T09:19:43;8.77;;;3.63;;
22863;SDS011;11599;49.882;8.680;2024-01-06T09:30:05;10.77;;;3.63;;
22863;SDS011;11599;49.882;8.680;2024-01-06T09:40:35;11.23;;;4.57;;
22863;SDS011;11599;49.882;8.680;2024-01-06T09:51:04;12.57;;;4.30;;
22863;SDS011;11599;49.882;8.680;2024-01-06T10:01:28;11.70;;;4.70;;
22863;SDS011;11599;49.882;8.680;2024-01-06T10:11:49;13.37;;;4.73;;
22863;SDS011;11599;49.882;8.680;2024-01-06T10:22:12;13.50;;;5.20;;
22863;SDS011;11599;49.882;8.680;2024-01-06T10:32:33;12.47;;;4.80;;
22863;SDS011;11599;49.882;8.680;2024-01-06T10:42:57;10.27;;;4.80;;
22863;SDS011;11599;49.882;8.680;2024-01-06T10:53:20;11.20;;;4.93;;
22863;SDS011;11599;49.882;8.680;2024-01-06T11:03:44;12.87;;;5.47;;
22863;SDS011;11599;49.882;8.680;2024-01-06T11:14:20;17.73;;;5.13;;
22863;SDS011;11599;49.882;8.680;2024-01-06T11:24:42;10.87;;;5.10;;
22863;SDS011;11599;49.882;8.680;2024-01-06T11:35:08;8.33;;;5.17;;
22863;SDS011;11599;49.882;8.680;2024-01-06T11:45:31;8.87;;;4.90;;
22863;SDS011;11599;49.882;8.680;2024-01-06T11:55:53;10.47;;;5.00;;
22863;SDS011;11599;49.882;8.680;2024-01-06T12:06:19;7.27;;;4.53;;
22863;SDS011;11599;49.882;8.680;2024-01-06T12:16:41;8.87;;;4.93;;
22863;SDS011;11599;49.882;8.680;2024-01-06T12:27:06;11.17;;;5.00;;
22863;SDS011;11599;49.882;8.680;2024-01-06T12:37:27;14.07;;;4.80;;
22863;SDS011;11599;49.882;8.680;2024-01-06T12:47:50;11.10;;;4.63;;
22863;SDS011;11599;49.882;8.680;2024-01-06T12:58:12;10.73;;;5.50;;
22863;SDS011;11599;49.882;8.680;2024-01-06T13:08:35;11.57;;;5.40;;
22863;SDS011;11599;49.882;8.680;2024-01-06T13:18:56;9.67;;;4.70;;
22863;SDS011;11599;49.882;8.680;2024-01-06T13:29:20;11.53;;;5.00;;
22863;SDS011;11599;49.882;8.680;2024-01-06T13:39:41;10.67;;;4.97;;
22863;SDS011;11599;49.882;8.680;2024-01-06T13:50:05;14.23;;;5.57;;
22863;SDS011;11599;49.882;8.680;2024-01-06T14:00:26;9.97;;;5.27;;
22863;SDS011;11599;49.882;8.680;2024-01-06T14:10:49;12.03;;;5.40;;
22863;SDS011;11599;49.882;8.680;2024-01-06T14:21:11;11.80;;;5.83;;
22863;SDS011;11599;49.882;8.680;2024-01-06T14:31:36;10.03;;;5.80;;
22863;SDS011;11599;49.882;8.680;2024-01-06T14:41:57;12.93;;;5.93;;
22863;SDS011;11599;49.882;8.680;2024-01-06T14:52:20;12.67;;;6.03;;
22863;SDS011;11599;49.882;8.680;2024-01-06T15:02:42;11.97;;;5.80;;
22863;SDS011;11599;49.882;8.680;2024-01-06T15:13:09;10.53;;;5.97;;
22863;SDS011;11599;49.882;8.680;2024-01-06T15:23:31;10.10;;;5.63;;
22863;SDS011;11599;49.882;8.680;2024-01-06T15:33:53;12.77;;;6.00;;
22863;SDS011;11599;49.882;8.680;2024-01-06T15:44:15;17.93;;;7.13;;
22863;SDS011;11599;49.882;8.680;2024-01-06T15:54:40;15.73;;;6.77;;
22863;SDS011;11599;49.882;8.680;2024-01-06T16:05:04;13.47;;;6.33;;
22863;SDS011;11599;49.882;8.680;2024-01-06T16:15:34;10.47;;;5.20;;
22863;SDS011;11599;49.882;8.680;2024-01-06T16:25:56;12.40;;;5.43;;
22863;SDS011;11599;49.882;8.680;2024-01-06T16:36:20;11.77;;;5.33;;
22863;SDS011;11599;49.882;8.680;2024-01-06T16:46:42;16.50;;;6.13;;
22863;SDS011;11599;49.882;8.680;2024-01-06T17:07:52;19.00;;;8.10;;
22863;SDS011;11599;49.882;8.680;2024-01-06T17:18:15;11.20;;;5.60;;
22863;SDS011;11599;49.882;8.680;2024-01-06T17:28:51;15.97;;;6.83;;
22863;SDS011;11599;49.882;8.680;2024-01-06T17:39:14;13.80;;;6.40;;
22863;SDS011;11599;49.882;8.680;2024-01-06T17:49:38;20.27;;;7.43;;
22863;SDS011;11599;49.882;8.680;2024-01-06T17:59:59;26.97;;;8.47;;
22863;SDS011;11599;49.882;8.680;2024-01-06T18:10:22;21.87;;;6.97;;
22863;SDS011;11599;49.882;8.680;2024-01-06T18:43:05;15.23;;;6.27;;
22863;SDS011;11599;49.882;8.680;2024-01-06T18:53:29;16.43;;;6.90;;
22863;SDS011;11599;49.882;8.680;2024-01-06T19:03:51;21.93;;;7.60;;
22863;SDS011;11599;49.882;8.680;2024-01-06T19:14:13;21.63;;;8.60;;
22863;SDS011;11599;49.882;8.680;2024-01-06T19:24:36;19.33;;;8.07;;
22863;SDS011;11599;49.882;8.680;2024-01-06T19:34:57;17.53;;;7.33;;
22863;SDS011;11599;49.882;8.680;2024-01-06T19:45:20;16.73;;;6.90;;
22863;SDS011;11599;49.882;8.680;2024-01-06T19:55:41;17.37;;;7.20;;
22863;SDS011;11599;49.882;8.680;2024-01-06T20:06:04;17.13;;;5.80;;
22863;SDS011;11599;49.882;8.680;2024-01-06T20:16:28;15.43;;;6.77;;
22863;SDS011;11599;49.882;8.680;2024-01-06T20:26:52;13.13;;;6.50;;
22863;SDS011;11599;49.882;8.680;2024-01-06T20:37:14;19.80;;;8.10;;
22863;SDS011;11599;49.882;8.680;2024-01-06T20:47:36;21.60;;;8.77;;
22863;SDS011;11599;49.882;8.680;2024-01-06T20:57:59;20.90;;;8.77;;
22863;SDS011;11599;49.882;8.680;2024-01-06T21:08:22;18.73;;;8.80;;
22863;SDS011;11599;49.882;8.680;2024-01-06T21:18:43;15.43;;;7.70;;
22863;SDS011;11599;49.882;8.680;2024-01-06T21:29:07;14.87;;;6.83;;
22863;SDS011;11599;49.882;8.680;2024-01-06T21:39:29;18.70;;;8.80;;
22863;SDS011;11599;49.882;8.680;2024-01-06T21:49:51;19.67;;;7.87;;
22863;SDS011;11599;49.882;8.680;2024-01-06T22:00:13;14.20;;;7.20;;
22863;SDS011;11599;49.882;8.680;2024-01-06T22:10:37;14.20;;;6.30;;
22863;SDS011;11599;49.882;8.680;2024-01-06T22:20:59;11.57;;;5.83;;
22863;SDS011;11599;49.882;8.680;2024-01-06T22:31:22;10.93;;;5.67;;
22863;SDS011;11599;49.882;8.680;2024-01-06T22:41:43;12.53;;;5.87;;
22863;SDS011;11599;49.882;8.680;2024-01-06T22:52:06;12.83;;;5.80;;
22863;SDS011;11599;49.882;8.680;2024-01-06T23:02:28;13.93;;;5.70;;
22863;SDS011;11599;49.882;8.680;2024-01-06T23:12:51;11.07;;;5.53;;
22863;SDS011;11599;49.882;8.680;2024-01-06T23:23:12;10.50;;;4.67;;
22863;SDS011;11599;49.882;8.680;2024-01-06T23:33:35;7.60;;;4.10;;
22863;SDS011;11599;49.882;8.680;2024-01-06T23:43:57;7.73;;;3.40;;
22863;SDS011;11599;49.882;8.680;2024-01-06T23:54:19;7.03;;;3.57;;
